createdAt,value
2018-12-26T00:01:31.546Z,80.01
2018-12-26T00:03:59.950Z,79.49
2018-12-26T00:06:28.410Z,79.55
2018-12-26T00:08:56.839Z,79.42
2018-12-26T00:11:25.298Z,79.39
2018-12-26T00:13:53.748Z,79.25
2018-12-26T00:16:22.201Z,79.23
2018-12-26T00:18:50.637Z,79.43
2018-12-26T00:21:19.097Z,79.63
2018-12-26T00:23:47.579Z,79.61
2018-12-26T00:26:15.980Z,79.56
2018-12-26T00:28:44.445Z,79.43
2018-12-26T00:31:14.532Z,79.48
2018-12-26T00:33:43.085Z,79.41
2018-12-26T00:36:11.533Z,79.64
2018-12-26T00:38:40.026Z,79.41
2018-12-26T00:41:08.475Z,79.50
2018-12-26T00:43:36.927Z,79.56
2018-12-26T00:46:05.366Z,79.75
2018-12-26T00:48:33.820Z,79.52
2018-12-26T00:51:02.258Z,79.66
2018-12-26T00:53:30.721Z,79.63
2018-12-26T00:55:59.229Z,79.38
2018-12-26T00:58:27.681Z,79.44
2018-12-26T01:00:56.123Z,79.93
2018-12-26T01:03:24.578Z,79.39
2018-12-26T01:05:53.015Z,79.31
2018-12-26T01:08:21.480Z,79.27
2018-12-26T01:10:49.923Z,79.35
2018-12-26T01:13:18.375Z,79.24
2018-12-26T01:15:47.220Z,79.26
2018-12-26T01:18:15.647Z,79.42
2018-12-26T01:20:44.115Z,79.50
2018-12-26T01:23:12.552Z,79.62
2018-12-26T01:25:40.998Z,79.72
2018-12-26T01:28:09.418Z,79.74
2018-12-26T01:30:37.879Z,79.80
2018-12-26T01:33:06.342Z,79.84
2018-12-26T01:35:34.774Z,79.97
2018-12-26T01:38:03.219Z,79.77
2018-12-26T01:40:31.668Z,79.99
2018-12-26T01:43:00.125Z,80.06
2018-12-26T01:45:28.584Z,80.24
2018-12-26T01:47:57.020Z,80.19
2018-12-26T01:50:25.464Z,80.19
2018-12-26T01:52:53.911Z,80.23
2018-12-26T01:55:22.339Z,80.21
2018-12-26T01:57:50.947Z,80.23
2018-12-26T02:00:19.387Z,79.87
2018-12-26T02:02:47.842Z,79.95
2018-12-26T02:05:16.292Z,79.98
2018-12-26T02:07:44.743Z,79.88
2018-12-26T02:10:13.203Z,79.95
2018-12-26T02:12:41.668Z,79.78
2018-12-26T02:15:10.115Z,79.92
2018-12-26T02:17:38.559Z,79.85
2018-12-26T02:20:08.147Z,79.69
2018-12-26T02:22:36.597Z,79.82
2018-12-26T02:25:05.682Z,79.83
2018-12-26T02:27:34.124Z,79.69
2018-12-26T02:30:02.583Z,79.69
2018-12-26T02:32:31.026Z,79.78
2018-12-26T02:34:59.463Z,79.38
2018-12-26T02:37:27.899Z,79.55
2018-12-26T02:39:56.410Z,79.76
2018-12-26T02:42:24.820Z,79.72
2018-12-26T02:44:53.266Z,79.70
2018-12-26T02:47:21.715Z,79.72
2018-12-26T02:49:50.144Z,79.67
2018-12-26T02:52:18.589Z,79.73
2018-12-26T02:54:47.020Z,79.91
2018-12-26T02:57:15.479Z,79.87
2018-12-26T02:59:43.925Z,79.88
2018-12-26T03:02:12.386Z,80.33
2018-12-26T03:04:40.867Z,80.05
2018-12-26T03:07:09.254Z,79.89
2018-12-26T03:09:37.687Z,80.25
2018-12-26T03:12:06.147Z,79.92
2018-12-26T03:14:34.643Z,79.99
2018-12-26T03:17:03.125Z,80.16
2018-12-26T03:19:31.556Z,80.17
2018-12-26T03:22:00.019Z,80.47
2018-12-26T03:24:28.483Z,80.62
2018-12-26T03:26:56.938Z,80.60
2018-12-26T03:29:25.369Z,80.62
2018-12-26T03:31:53.837Z,80.38
2018-12-26T03:34:22.279Z,80.45
2018-12-26T03:36:50.744Z,80.50
2018-12-26T03:39:19.178Z,81.03
2018-12-26T03:41:47.611Z,80.80
2018-12-26T03:44:16.067Z,80.80
2018-12-26T03:46:44.838Z,81.20
2018-12-26T03:49:13.306Z,80.99
2018-12-26T03:51:41.768Z,81.11
2018-12-26T03:54:10.220Z,81.04
2018-12-26T03:56:38.656Z,81.07
2018-12-26T03:59:07.102Z,81.07
2018-12-26T04:01:35.540Z,81.29
2018-12-26T04:04:04.050Z,81.14
2018-12-26T04:06:32.664Z,81.33
2018-12-26T04:09:01.199Z,81.39
2018-12-26T04:11:30.920Z,81.53
2018-12-26T04:13:59.363Z,81.55
2018-12-26T04:16:28.906Z,81.55
2018-12-26T04:18:57.444Z,81.59
2018-12-26T04:21:25.969Z,81.46
2018-12-26T04:23:54.584Z,81.60
2018-12-26T04:26:23.031Z,81.33
2018-12-26T04:28:51.494Z,81.68
2018-12-26T04:31:19.934Z,81.99
2018-12-26T04:33:48.387Z,82.23
2018-12-26T04:36:16.851Z,82.14
2018-12-26T04:38:45.294Z,82.45
2018-12-26T04:41:13.752Z,82.47
2018-12-26T04:43:42.205Z,82.56
2018-12-26T04:46:10.665Z,82.51
2018-12-26T04:48:39.099Z,82.89
2018-12-26T04:51:07.556Z,82.58
2018-12-26T04:53:36.661Z,82.93
2018-12-26T04:56:05.136Z,82.91
2018-12-26T04:58:33.573Z,82.69
2018-12-26T05:01:02.032Z,82.73
2018-12-26T05:03:30.566Z,82.58
2018-12-26T05:05:59.035Z,82.81
2018-12-26T05:08:27.535Z,82.89
2018-12-26T05:10:55.985Z,82.94
2018-12-26T05:13:24.461Z,83.27
2018-12-26T05:15:52.905Z,83.64
2018-12-26T05:18:21.368Z,84.13
2018-12-26T05:20:49.818Z,84.17
2018-12-26T05:23:18.274Z,84.57
2018-12-26T05:25:46.731Z,84.55
2018-12-26T05:28:15.200Z,84.41
2018-12-26T05:30:43.641Z,84.01
2018-12-26T05:33:12.097Z,84.01
2018-12-26T05:35:40.545Z,84.46
2018-12-26T05:38:09.043Z,84.81
2018-12-26T05:40:37.533Z,84.95
2018-12-26T05:43:05.989Z,84.98
2018-12-26T05:45:34.453Z,84.76
2018-12-26T05:48:02.887Z,85.18
2018-12-26T05:50:31.345Z,85.54
2018-12-26T05:52:59.791Z,85.58
2018-12-26T05:55:28.269Z,85.62
2018-12-26T05:57:56.717Z,85.65
2018-12-26T06:00:25.194Z,86.02
2018-12-26T06:02:53.647Z,86.10
2018-12-26T06:05:22.114Z,86.46
2018-12-26T06:07:50.552Z,86.26
2018-12-26T06:10:19.002Z,86.21
2018-12-26T06:12:47.442Z,86.42
2018-12-26T06:15:15.897Z,86.84
2018-12-26T06:17:44.343Z,87.03
2018-12-26T06:20:12.853Z,87.10
2018-12-26T06:22:41.309Z,87.62
2018-12-26T06:25:09.773Z,88.19
2018-12-26T06:27:38.214Z,88.18
2018-12-26T06:30:07.348Z,88.02
2018-12-26T06:32:35.820Z,88.25
2018-12-26T06:35:04.440Z,88.42
2018-12-26T06:37:32.896Z,88.88
2018-12-26T06:40:01.340Z,88.60
2018-12-26T06:42:29.793Z,88.48
2018-12-26T06:44:58.247Z,88.35
2018-12-26T06:47:26.800Z,88.51
2018-12-26T06:49:55.259Z,88.65
2018-12-26T06:52:23.721Z,88.92
2018-12-26T06:54:52.163Z,89.08
2018-12-26T06:57:20.637Z,89.08
2018-12-26T06:59:49.080Z,89.24
2018-12-26T07:02:17.554Z,89.56
2018-12-26T07:04:46.000Z,89.61
2018-12-26T07:07:14.467Z,90.07
2018-12-26T07:09:42.901Z,90.61
2018-12-26T07:12:11.370Z,90.55
2018-12-26T07:14:40.166Z,90.64
2018-12-26T07:17:08.634Z,90.78
2018-12-26T07:19:37.077Z,90.87
2018-12-26T07:22:05.534Z,90.95
2018-12-26T07:24:33.983Z,90.96
2018-12-26T07:27:02.438Z,90.75
2018-12-26T07:29:30.887Z,90.62
2018-12-26T07:31:59.354Z,90.62
2018-12-26T07:34:27.800Z,90.70
2018-12-26T07:36:56.254Z,91.08
2018-12-26T07:39:24.694Z,90.92
2018-12-26T07:41:53.152Z,90.04
2018-12-26T07:44:21.601Z,90.33
2018-12-26T07:46:50.064Z,91.10
2018-12-26T07:49:18.516Z,90.69
2018-12-26T07:51:47.000Z,90.03
2018-12-26T07:54:15.445Z,90.41
2018-12-26T07:56:43.888Z,90.10
2018-12-26T07:59:12.358Z,90.11
2018-12-26T08:01:40.831Z,90.23
2018-12-26T08:04:09.297Z,90.72
2018-12-26T08:06:37.872Z,91.19
2018-12-26T08:09:06.973Z,90.94
2018-12-26T08:11:35.412Z,90.86
2018-12-26T08:14:03.906Z,91.14
2018-12-26T08:16:32.333Z,91.08
2018-12-26T08:19:00.792Z,91.03
2018-12-26T08:21:29.260Z,91.41
2018-12-26T08:23:57.710Z,91.98
2018-12-26T08:26:26.152Z,92.37
2018-12-26T08:28:54.628Z,92.22
2018-12-26T08:31:23.090Z,91.97
2018-12-26T08:33:51.548Z,92.15
2018-12-26T08:36:19.988Z,92.35
2018-12-26T08:38:48.481Z,92.32
2018-12-26T08:41:18.599Z,92.41
2018-12-26T08:43:47.505Z,92.24
2018-12-26T08:46:15.988Z,92.66
2018-12-26T08:48:44.448Z,92.83
2018-12-26T08:51:12.989Z,92.83
2018-12-26T08:53:41.441Z,92.77
2018-12-26T08:56:09.909Z,93.11
2018-12-26T08:58:38.349Z,92.92
2018-12-26T09:01:06.806Z,93.58
2018-12-26T09:03:35.356Z,93.67
2018-12-26T09:06:03.787Z,93.81
2018-12-26T09:08:32.229Z,93.72
2018-12-26T09:11:00.709Z,93.80
2018-12-26T09:13:29.147Z,93.68
2018-12-26T09:15:57.631Z,93.72
2018-12-26T09:18:26.087Z,94.26
2018-12-26T09:20:54.549Z,94.27
2018-12-26T09:23:23.000Z,94.39
2018-12-26T09:25:52.927Z,94.15
2018-12-26T09:28:21.371Z,93.96
2018-12-26T09:30:49.832Z,94.00
2018-12-26T09:33:18.282Z,94.18
2018-12-26T09:35:46.747Z,94.14
2018-12-26T09:38:15.199Z,93.93
2018-12-26T09:40:43.654Z,94.12
2018-12-26T09:43:12.117Z,94.58
2018-12-26T09:45:40.583Z,93.88
2018-12-26T09:48:09.009Z,93.63
2018-12-26T09:50:37.458Z,93.57
2018-12-26T09:53:05.898Z,93.73
2018-12-26T09:55:34.388Z,93.63
2018-12-26T09:58:02.831Z,93.59
2018-12-26T10:00:31.298Z,93.63
2018-12-26T10:02:59.743Z,93.27
2018-12-26T10:05:28.198Z,93.54
2018-12-26T10:07:56.654Z,93.67
2018-12-26T10:10:25.123Z,93.62
2018-12-26T10:12:53.552Z,93.87
2018-12-26T10:15:22.009Z,93.80
2018-12-26T10:17:50.470Z,94.00
2018-12-26T10:20:18.906Z,94.17
2018-12-26T10:22:47.367Z,93.97
2018-12-26T10:25:15.809Z,94.25
2018-12-26T10:27:44.278Z,94.43
2018-12-26T10:30:12.723Z,95.02
2018-12-26T10:32:41.186Z,95.04
2018-12-26T10:35:09.631Z,95.00
2018-12-26T10:37:38.089Z,94.49
2018-12-26T10:40:07.771Z,94.67
2018-12-26T10:42:36.228Z,94.81
2018-12-26T10:45:05.223Z,94.86
2018-12-26T10:47:33.673Z,94.30
2018-12-26T10:50:02.128Z,94.74
2018-12-26T10:52:30.596Z,94.40
2018-12-26T10:54:59.043Z,94.87
2018-12-26T10:57:27.684Z,94.70
2018-12-26T10:59:56.206Z,94.68
2018-12-26T11:02:24.660Z,94.71
2018-12-26T11:04:53.111Z,95.13
2018-12-26T11:07:21.595Z,94.54
2018-12-26T11:09:50.057Z,94.27
2018-12-26T11:12:18.795Z,94.55
2018-12-26T11:14:47.241Z,94.63
2018-12-26T11:17:15.714Z,94.66
2018-12-26T11:19:45.101Z,94.71
2018-12-26T11:22:13.556Z,95.22
2018-12-26T11:24:42.015Z,95.44
2018-12-26T11:27:10.475Z,95.40
2018-12-26T11:29:38.920Z,95.26
2018-12-26T11:32:09.019Z,95.77
2018-12-26T11:34:37.495Z,95.75
2018-12-26T11:37:05.950Z,95.63
2018-12-26T11:39:34.560Z,95.80
2018-12-26T11:42:03.019Z,95.35
2018-12-26T11:44:33.800Z,95.13
2018-12-26T11:47:02.302Z,95.45
2018-12-26T11:49:30.742Z,95.68
2018-12-26T11:51:59.225Z,95.62
2018-12-26T11:54:27.758Z,95.82
2018-12-26T11:56:56.228Z,96.15
2018-12-26T11:59:27.285Z,96.62
2018-12-26T12:01:54.936Z,96.97
2018-12-26T12:04:23.426Z,96.48
2018-12-26T12:06:51.891Z,96.69
2018-12-26T12:09:20.396Z,96.71
2018-12-26T12:11:49.007Z,96.66
2018-12-26T12:14:17.564Z,96.62
2018-12-26T12:16:46.056Z,96.95
2018-12-26T12:19:16.918Z,96.71
2018-12-26T12:21:45.368Z,96.88
2018-12-26T12:24:14.154Z,96.76
2018-12-26T12:26:42.603Z,96.83
2018-12-26T12:29:11.056Z,96.84
2018-12-26T12:31:39.514Z,96.94
2018-12-26T12:34:08.149Z,97.32
2018-12-26T12:36:36.600Z,97.70
2018-12-26T12:39:06.610Z,97.91
2018-12-26T12:41:35.056Z,97.82
2018-12-26T12:44:03.684Z,98.18
2018-12-26T12:46:32.211Z,98.15
2018-12-26T12:49:00.803Z,98.11
2018-12-26T12:51:29.237Z,98.23
2018-12-26T12:53:57.718Z,98.42
2018-12-26T12:56:26.172Z,98.40
2018-12-26T12:58:54.721Z,98.46
2018-12-26T13:01:23.242Z,98.58
2018-12-26T13:03:51.722Z,98.35
2018-12-26T13:06:20.174Z,98.30
2018-12-26T13:08:48.649Z,98.25
2018-12-26T13:11:17.126Z,98.55
2018-12-26T13:13:45.632Z,98.87
2018-12-26T13:16:14.075Z,98.55
2018-12-26T13:18:42.550Z,98.64
2018-12-26T13:21:10.983Z,98.65
2018-12-26T13:23:39.441Z,98.58
2018-12-26T13:26:07.914Z,98.55
2018-12-26T13:28:36.364Z,98.70
2018-12-26T13:31:05.425Z,98.97
2018-12-26T13:33:33.938Z,99.14
2018-12-26T13:36:02.426Z,99.13
2018-12-26T13:38:30.904Z,99.14
2018-12-26T13:40:59.375Z,99.09
2018-12-26T13:43:27.833Z,99.07
2018-12-26T13:45:56.277Z,99.14
2018-12-26T13:48:24.733Z,99.29
2018-12-26T13:50:53.196Z,99.21
2018-12-26T13:53:21.634Z,99.25
2018-12-26T13:55:50.101Z,99.43
2018-12-26T13:58:18.542Z,99.41
2018-12-26T14:00:47.882Z,99.32
2018-12-26T14:03:16.352Z,99.29
2018-12-26T14:05:44.969Z,99.17
2018-12-26T14:08:13.423Z,99.41
2018-12-26T14:10:41.876Z,99.58
2018-12-26T14:13:10.331Z,99.41
2018-12-26T14:15:38.809Z,99.25
2018-12-26T14:18:07.285Z,99.72
2018-12-26T14:20:35.722Z,99.83
2018-12-26T14:23:04.180Z,99.81
2018-12-26T14:25:32.632Z,99.99
2018-12-26T14:28:01.108Z,99.91
2018-12-26T14:30:29.571Z,99.92
2018-12-26T14:32:58.091Z,99.91
2018-12-26T14:35:26.494Z,99.73
2018-12-26T14:37:54.993Z,99.89
2018-12-26T14:40:23.449Z,99.93
2018-12-26T14:42:51.895Z,100.00
2018-12-26T14:45:20.355Z,99.82
2018-12-26T14:47:48.803Z,99.85
2018-12-26T14:50:17.255Z,99.74
2018-12-26T14:52:45.724Z,99.82
2018-12-26T14:55:14.216Z,100.00
2018-12-26T14:57:42.670Z,100.00
2018-12-26T15:00:19.708Z,100.00
2018-12-26T15:02:41.309Z,100.00
2018-12-26T15:05:09.755Z,100.00
2018-12-26T15:07:38.254Z,100.00
2018-12-26T15:10:07.032Z,100.00
2018-12-26T15:12:35.505Z,100.00
2018-12-26T15:15:04.312Z,100.00
2018-12-26T15:17:32.774Z,100.00
2018-12-26T15:20:01.218Z,100.00
2018-12-26T15:22:29.702Z,100.00
2018-12-26T15:24:58.143Z,100.00
2018-12-26T15:27:26.596Z,100.00
2018-12-26T15:29:55.053Z,100.00
2018-12-26T15:32:23.509Z,100.00
2018-12-26T15:34:51.988Z,100.00
2018-12-26T15:37:20.552Z,100.00
2018-12-26T15:39:48.993Z,100.00
2018-12-26T15:42:17.639Z,100.00
2018-12-26T15:44:46.121Z,100.00
2018-12-26T15:47:14.548Z,100.00
2018-12-26T15:49:43.007Z,100.00
2018-12-26T15:52:11.517Z,100.00
2018-12-26T15:54:39.982Z,100.00
2018-12-26T15:57:08.430Z,100.00
2018-12-26T15:59:36.912Z,100.00
2018-12-26T16:02:05.362Z,100.00
2018-12-26T16:04:33.834Z,100.00
2018-12-26T16:07:02.294Z,100.00
2018-12-26T16:09:30.764Z,100.00
2018-12-26T16:11:59.209Z,100.00
2018-12-26T16:14:27.684Z,100.00
2018-12-26T16:16:56.187Z,100.00
2018-12-26T16:19:24.624Z,100.00
2018-12-26T16:21:53.058Z,100.00
2018-12-26T16:24:21.518Z,100.00
2018-12-26T16:26:49.972Z,100.00
2018-12-26T16:29:18.425Z,100.00
2018-12-26T16:31:46.862Z,100.00
2018-12-26T16:34:15.410Z,100.00
2018-12-26T16:36:43.806Z,100.00
2018-12-26T16:39:12.250Z,100.00
2018-12-26T16:41:40.746Z,100.00
2018-12-26T16:44:09.193Z,100.00
2018-12-26T16:46:37.640Z,100.00
2018-12-26T16:49:06.087Z,100.00
2018-12-26T16:51:34.570Z,100.00
2018-12-26T16:54:03.099Z,100.00
2018-12-26T16:56:31.571Z,100.00
2018-12-26T16:59:00.012Z,100.00
2018-12-26T17:01:28.486Z,100.00
2018-12-26T17:03:56.968Z,100.00
2018-12-26T17:06:25.467Z,100.00
2018-12-26T17:08:53.930Z,100.00
2018-12-26T17:11:22.380Z,100.00
2018-12-26T17:13:50.842Z,100.00
2018-12-26T17:16:19.300Z,100.00
2018-12-26T17:18:47.772Z,100.00
2018-12-26T17:21:16.239Z,100.00
2018-12-26T17:23:44.705Z,100.00
2018-12-26T17:26:13.153Z,100.00
2018-12-26T17:28:41.609Z,100.00
2018-12-26T17:31:10.070Z,100.00
2018-12-26T17:33:38.563Z,100.00
2018-12-26T17:36:06.995Z,100.00
2018-12-26T17:38:35.477Z,100.00
2018-12-26T17:41:03.988Z,100.00
2018-12-26T17:43:32.465Z,100.00
2018-12-26T17:46:00.916Z,100.00
2018-12-26T17:48:29.362Z,100.00
2018-12-26T17:50:57.889Z,100.00
2018-12-26T17:53:35.257Z,100.00
2018-12-26T17:56:09.758Z,100.00
2018-12-26T17:58:47.496Z,100.00
2018-12-26T18:01:21.988Z,100.00
2018-12-26T18:03:50.440Z,100.00
2018-12-26T18:06:18.902Z,100.00
2018-12-26T18:08:47.359Z,100.00
2018-12-26T18:11:15.819Z,100.00
2018-12-26T18:13:44.284Z,100.00
2018-12-26T18:16:12.860Z,100.00
2018-12-26T18:18:41.313Z,100.00
2018-12-26T18:21:09.814Z,100.00
2018-12-26T18:23:38.256Z,100.00
2018-12-26T18:26:06.811Z,100.00
2018-12-26T18:28:35.285Z,100.00
2018-12-26T18:31:03.751Z,100.00
2018-12-26T18:33:32.211Z,100.00
2018-12-26T18:36:00.689Z,100.00
2018-12-26T18:38:29.157Z,100.00
2018-12-26T18:40:57.674Z,100.00
2018-12-26T18:43:26.122Z,100.00
2018-12-26T18:45:54.595Z,100.00
2018-12-26T18:48:23.067Z,100.00
2018-12-26T18:50:51.532Z,100.00
2018-12-26T18:53:19.996Z,100.00
2018-12-26T18:55:48.427Z,100.00
2018-12-26T18:58:16.896Z,100.00
2018-12-26T19:00:45.339Z,100.00
2018-12-26T19:03:13.791Z,100.00
2018-12-26T19:05:42.239Z,100.00
2018-12-26T19:08:10.714Z,100.00
2018-12-26T19:10:39.179Z,100.00
2018-12-26T19:13:07.666Z,100.00
2018-12-26T19:15:36.108Z,100.00
2018-12-26T19:18:04.582Z,100.00
2018-12-26T19:20:33.026Z,100.00
2018-12-26T19:23:01.504Z,100.00
2018-12-26T19:25:29.974Z,100.00
2018-12-26T19:27:58.452Z,100.00
2018-12-26T19:30:26.896Z,100.00
2018-12-26T19:32:55.390Z,100.00
2018-12-26T19:35:23.826Z,100.00
2018-12-26T19:37:52.330Z,100.00
2018-12-26T19:40:20.783Z,100.00
2018-12-26T19:42:49.254Z,100.00
2018-12-26T19:45:17.704Z,100.00
2018-12-26T19:47:46.206Z,100.00
2018-12-26T19:50:14.673Z,100.00
2018-12-26T19:52:43.200Z,100.00
2018-12-26T19:55:11.653Z,100.00
2018-12-26T19:57:40.131Z,100.00
2018-12-26T20:00:10.832Z,100.00
2018-12-26T20:02:39.284Z,100.00
2018-12-26T20:05:07.742Z,100.00
2018-12-26T20:07:36.206Z,100.00
2018-12-26T20:10:07.312Z,100.00
2018-12-26T20:12:35.771Z,100.00
2018-12-26T20:15:04.797Z,100.00
2018-12-26T20:17:33.259Z,100.00
2018-12-26T20:20:01.721Z,100.00
2018-12-26T20:22:30.180Z,100.00
2018-12-26T20:24:58.717Z,100.00
2018-12-26T20:27:27.165Z,100.00
2018-12-26T20:29:55.637Z,100.00
2018-12-26T20:32:24.072Z,100.00
2018-12-26T20:34:52.546Z,100.00
2018-12-26T20:37:20.999Z,100.00
2018-12-26T20:39:49.480Z,100.00
2018-12-26T20:42:17.931Z,100.00
2018-12-26T20:44:46.404Z,100.00
2018-12-26T20:47:14.874Z,100.00
2018-12-26T20:49:43.335Z,100.00
2018-12-26T20:52:13.323Z,100.00
2018-12-26T20:54:41.821Z,100.00
2018-12-26T20:57:10.247Z,100.00
2018-12-26T20:59:38.732Z,100.00
2018-12-26T21:02:07.200Z,100.00
2018-12-26T21:04:35.685Z,100.00
2018-12-26T21:07:04.147Z,100.00
2018-12-26T21:09:32.603Z,100.00
2018-12-26T21:12:01.071Z,100.00
2018-12-26T21:14:29.529Z,100.00
2018-12-26T21:16:57.986Z,100.00
2018-12-26T21:19:26.454Z,100.00
2018-12-26T21:21:54.928Z,100.00
2018-12-26T21:24:23.382Z,100.00
2018-12-26T21:26:51.837Z,100.00
2018-12-26T21:29:20.296Z,100.00
2018-12-26T21:31:48.854Z,100.00
2018-12-26T21:34:17.295Z,100.00
2018-12-26T21:36:45.769Z,100.00
2018-12-26T21:39:14.225Z,100.00
2018-12-26T21:41:42.708Z,100.00
2018-12-26T21:44:11.160Z,100.00
2018-12-26T21:46:39.631Z,100.00
2018-12-26T21:49:08.083Z,100.00
2018-12-26T21:51:36.557Z,100.00
2018-12-26T21:54:05.021Z,100.00
2018-12-26T21:56:33.651Z,100.00
2018-12-26T21:59:02.165Z,100.00
2018-12-26T22:01:31.168Z,100.00
2018-12-26T22:03:59.613Z,100.00
2018-12-26T22:06:28.102Z,100.00
2018-12-26T22:08:56.553Z,100.00
2018-12-26T22:11:25.031Z,100.00
2018-12-26T22:13:53.490Z,100.00
2018-12-26T22:16:21.955Z,100.00
2018-12-26T22:18:50.404Z,100.00
2018-12-26T22:21:18.875Z,100.00
2018-12-26T22:23:47.354Z,100.00
2018-12-26T22:26:15.825Z,100.00
2018-12-26T22:28:44.279Z,100.00
2018-12-26T22:31:12.742Z,100.00
2018-12-26T22:33:41.209Z,100.00
2018-12-26T22:36:09.667Z,100.00
2018-12-26T22:38:38.146Z,100.00
2018-12-26T22:41:06.593Z,100.00
2018-12-26T22:43:35.072Z,100.00
2018-12-26T22:46:03.522Z,100.00
2018-12-26T22:48:31.986Z,100.00
2018-12-26T22:51:00.455Z,100.00
2018-12-26T22:53:28.943Z,100.00
2018-12-26T22:55:57.389Z,100.00
2018-12-26T22:58:25.853Z,100.00
2018-12-26T23:00:54.302Z,100.00
2018-12-26T23:03:22.750Z,100.00
2018-12-26T23:05:51.260Z,100.00
2018-12-26T23:08:19.682Z,100.00
2018-12-26T23:10:48.167Z,100.00
2018-12-26T23:13:16.626Z,100.00
2018-12-26T23:15:45.125Z,100.00
2018-12-26T23:18:13.583Z,100.00
2018-12-26T23:20:42.056Z,100.00
2018-12-26T23:23:10.498Z,100.00
2018-12-26T23:25:38.978Z,100.00
2018-12-26T23:28:07.494Z,100.00
2018-12-26T23:30:35.958Z,100.00
2018-12-26T23:33:04.725Z,100.00
2018-12-26T23:35:33.201Z,100.00
2018-12-26T23:38:01.653Z,100.00
2018-12-26T23:40:30.126Z,100.00
2018-12-26T23:42:58.572Z,100.00
2018-12-26T23:45:27.011Z,100.00
2018-12-26T23:47:55.512Z,100.00
2018-12-26T23:50:23.991Z,100.00
2018-12-26T23:52:52.450Z,100.00
2018-12-26T23:55:20.902Z,100.00
2018-12-26T23:57:49.364Z,99.97
